Time;durP1;ratioP1;P1;durP2;ratioP2;P2;SDS_P1;SDS_P2;PMS_P1;PMS_P2;Temp;Humidity;BMP_temperature;BMP_pressure;BME280_temperature;BME280_humidity;BME280_pressure;Samples;Min_cycle;Max_cycle;Signal;HPM_P1;HPM_P2
2021/08/03 00:01:57;;;;;;;7.47;6.63;;;;;;;27.41;50.41;94345.30;820340;71;29179;-76
2021/08/03 00:17:03;;;;;;;8.93;6.80;;;;;;;;;;827602;71;31811;-74
2021/08/03 00:31:45;;;;;;;6.20;5.70;;;;;;;27.24;51.13;94365.28;807824;71;29845;-73
2021/08/03 00:46:47;;;;;;;6.00;5.60;;;;;;;27.24;50.79;94361.83;828293;71;28704;-74
2021/08/03 01:01:48;;;;;;;6.57;5.93;;;;;;;27.12;50.98;94356.31;834081;71;28870;-73
2021/08/03 01:16:53;;;;;;;6.73;6.13;;;;;;;;;;828366;71;29771;-74
2021/08/03 01:31:55;;;;;;;6.57;5.43;;;;;;;27.07;51.57;94374.23;828287;71;30462;-74
2021/08/03 01:33:00;;;;;;;6.43;5.83;;;;;;;27.02;51.72;94152.04;808748;73;26839;-75
2021/08/03 01:47:18;;;;;;;5.70;5.20;;;;;;;27.09;51.00;94375.39;831026;71;32701;-75
2021/08/03 02:01:41;;;;;;;7.27;5.53;;;;;;;27.09;50.82;94348.45;834046;71;29691;-75
2021/08/03 02:16:53;;;;;;;7.03;5.70;;;;;;;27.15;50.18;94348.20;827474;71;33174;-74
2021/08/03 02:31:53;;;;;;;6.00;5.50;;;;;;;27.15;50.30;94379.78;828295;71;29861;-74
2021/08/03 02:46:54;;;;;;;6.83;6.13;;;;;;;27.00;50.51;94402.00;833876;71;32742;-75
2021/08/03 03:02:11;;;;;;;6.03;5.43;;;;;;;27.01;50.54;94404.89;828213;71;30437;-74
2021/08/03 03:17:37;;;;;;;8.33;6.17;;;;;;;27.13;50.43;165824.39;827595;71;32684;-74
2021/08/03 03:32:01;;;;;;;6.47;5.80;;;;;;;27.08;50.14;94415.59;828330;71;30260;-76
2021/08/03 03:47:08;;;;;;;6.57;5.70;;;;;;;;;;828250;71;29257;-77
2021/08/03 04:02:08;;;;;;;7.20;6.50;;;;;;;28.25;47.29;94451.39;829163;71;30279;-75
2021/08/03 04:17:16;;;;;;;8.90;6.40;;;;;;;28.66;46.18;94457.89;834376;71;33257;-76
2021/08/03 04:32:08;;;;;;;6.70;5.97;;;;;;;29.11;45.17;94461.16;834061;71;29965;-76
2021/08/03 04:47:00;;;;;;;6.50;5.90;;;;;;;29.01;45.82;94469.39;828859;71;32716;-76
2021/08/03 04:48:04;;;;;;;7.30;6.47;;;;;;;28.95;45.84;94469.08;809168;73;27029;-76
2021/08/03 05:02:01;;;;;;;7.23;5.93;;;;;;;29.10;45.38;94465.02;835551;71;32016;-76
2021/08/03 05:17:20;;;;;;;6.43;5.90;;;;;;;29.11;44.68;94467.91;827832;71;32689;-77
2021/08/03 05:32:06;;;;;;;6.30;5.80;;;;;;;29.32;44.31;94487.70;827623;71;33147;-75
2021/08/03 05:47:08;;;;;;;5.47;4.97;;;;;;;29.73;43.83;94493.48;824415;71;33984;-77
2021/08/03 06:02:29;;;;;;;6.00;5.50;;;;;;;30.20;43.17;94496.16;822563;70;32790;-80
2021/08/03 06:16:58;;;;;;;6.80;6.10;;;;;;;30.61;42.27;94497.72;794504;74;29752;-78
2021/08/03 06:32:03;;;;;;;9.03;6.97;;;;;;;31.11;41.29;94504.10;824908;71;33327;-79
2021/08/03 06:46:59;;;;;;;7.13;6.43;;;;;;;31.58;40.75;94507.16;814320;71;30398;-77
2021/08/03 07:02:07;;;;;;;10.97;7.37;;;;;;;32.03;39.95;94513.27;833894;71;28798;-77
2021/08/03 07:17:02;;;;;;;8.97;7.30;;;;;;;32.50;39.04;94522.31;819355;71;29906;-77
2021/08/03 07:31:44;;;;;;;9.50;8.27;;;;;;;32.66;37.96;94500.55;828082;71;29427;-77
2021/08/03 07:47:06;;;;;;;10.43;9.13;;;;;;;33.30;37.08;94515.64;833806;71;31809;-78
2021/08/03 08:01:47;;;;;;;10.13;9.23;;;;;;;33.59;36.45;94502.51;833947;71;28265;-77
2021/08/03 08:17:00;;;;;;;10.73;9.63;;;;;;;33.98;34.89;94501.10;827685;71;31812;-78
2021/08/03 08:31:42;;;;;;;11.03;9.77;;;;;;;34.67;33.07;94512.61;826487;71;31800;-79
2021/08/03 08:46:40;;;;;;;9.90;9.00;;;;;;;35.41;31.64;94502.12;828119;71;29274;-76
2021/08/03 09:02:07;;;;;;;10.23;9.27;;;;;;;35.56;29.72;94489.41;828274;71;29188;-75
2021/08/03 09:17:09;;;;;;;10.37;9.43;;;;;;;35.21;29.78;94496.42;812309;71;31929;-78
2021/08/03 09:32:22;;;;;;;7.50;6.27;;;;;;;35.90;25.94;94480.88;819692;71;32463;-80
2021/08/03 09:47:03;;;;;;;6.60;6.00;;;;;;;36.59;25.65;94464.48;821733;71;31707;-77
2021/08/03 10:01:57;;;;;;;7.83;7.13;;;;;;;37.04;24.78;94463.48;824230;71;28850;-77
2021/08/03 10:16:55;;;;;;;7.80;7.10;;;;;;;37.15;24.25;94458.91;820487;71;28665;-75
2021/08/03 10:31:55;;;;;;;7.20;6.57;;;;;;;36.99;23.50;94446.34;815553;71;29396;-78
2021/08/03 10:46:52;;;;;;;7.20;6.60;;;;;;;36.01;23.66;94433.39;815716;71;28764;-78
2021/08/03 11:01:59;;;;;;;8.50;7.70;;;;;;;36.48;24.66;94428.67;827746;71;31681;-75
2021/08/03 11:16:50;;;;;;;7.70;7.13;;;;;;;36.99;24.46;94414.26;834711;71;28285;-76
2021/08/03 11:32:01;;;;;;;7.40;6.80;;;;;;;37.00;23.58;94414.39;834105;71;29710;-77
2021/08/03 11:47:01;;;;;;;7.57;6.93;;;;;;;36.74;24.08;94407.19;834683;71;31966;-77
2021/08/03 12:01:50;;;;;;;7.13;6.63;;;;;;;36.84;23.95;94390.14;834342;71;29263;-78
2021/08/03 12:16:45;;;;;;;6.50;6.00;;;;;;;36.68;24.23;94387.16;834661;71;28200;-76
2021/08/03 12:31:50;;;;;;;6.93;6.23;;;;;;;36.76;23.99;94383.48;820906;71;31749;-77
2021/08/03 12:46:49;;;;;;;6.50;6.00;;;;;;;36.68;23.83;94392.03;820121;71;31668;-78
2021/08/03 13:01:51;;;;;;;6.97;6.37;;;;;;;36.28;24.10;94379.95;823250;71;32375;-78
2021/08/03 13:16:47;;;;;;;6.40;5.90;;;;;;;36.07;24.75;94370.09;806339;71;31952;-76
2021/08/03 13:31:44;;;;;;;6.70;6.10;;;;;;;35.67;25.59;94345.06;821274;71;31013;-77
2021/08/03 13:46:56;;;;;;;6.83;6.20;;;;;;;35.39;26.29;94340.78;818333;71;29304;-77
2021/08/03 14:01:58;;;;;;;7.20;6.60;;;;;;;34.73;27.39;94351.94;818027;71;32193;-78
2021/08/03 14:17:06;;;;;;;6.00;5.60;;;;;;;34.35;28.60;94384.27;818678;71;31810;-76
2021/08/03 14:32:06;;;;;;;7.93;5.83;;;;;;;33.85;28.51;94385.42;822865;71;29480;-77
2021/08/03 14:46:44;;;;;;;7.03;5.67;;;;;;;33.85;28.41;94385.42;816694;71;28312;-78
2021/08/03 15:02:07;;;;;;;6.30;5.80;;;;;;;33.51;28.40;94392.35;815614;71;27749;-76
2021/08/03 15:17:02;;;;;;;8.60;5.63;;;;;;;33.06;28.93;94386.58;808212;71;27857;-77
2021/08/03 15:31:59;;;;;;;6.97;6.17;;;;;;;32.60;28.58;94375.16;820779;71;27296;-77
2021/08/03 15:47:14;;;;;;;5.73;5.33;;;;;;;32.26;28.72;94369.11;814496;71;30960;-76
2021/08/03 16:01:59;;;;;;;6.63;6.13;;;;;;;32.19;28.66;94359.04;821437;71;29441;-77
2021/08/03 16:17:07;;;;;;;17.17;15.60;;;;;;;31.72;28.67;94364.34;821633;71;30862;-80
2021/08/03 16:32:01;;;;;;;8.30;7.40;;;;;;;31.54;29.26;94358.78;820888;71;28192;-77
2021/08/03 16:47:07;;;;;;;7.13;6.37;;;;;;;31.39;28.78;94360.31;811225;71;31826;-78
2021/08/03 17:02:12;;;;;;;6.20;5.70;;;;;;;31.12;29.32;94349.16;824321;71;31788;-76
2021/08/03 17:16:59;;;;;;;7.03;6.37;;;;;;;30.78;30.08;94341.98;827531;71;31621;-78
2021/08/03 17:31:58;;;;;;;7.20;6.50;;;;;;;30.32;31.93;94345.89;833796;71;30764;-77
2021/08/03 17:46:56;;;;;;;6.93;6.30;;;;;;;29.80;33.19;94343.80;828254;71;29929;-76
2021/08/03 18:02:20;;;;;;;7.80;7.00;;;;;;;29.27;34.91;94330.03;833948;71;32156;-73
2021/08/03 18:16:57;;;;;;;8.07;7.37;;;;;;;28.91;34.06;94321.91;833963;71;29235;-77
2021/08/03 18:46:53;;;;;;;9.33;8.00;;;;;;;28.27;36.83;94335.70;818393;71;33297;-78
2021/08/03 19:02:03;;;;;;;9.67;8.67;;;;;;;28.61;37.18;94349.75;793178;74;33458;-77
2021/08/03 19:16:57;;;;;;;10.03;8.30;;;;;;;28.48;38.24;94341.98;822526;71;28645;-75
2021/08/03 19:31:55;;;;;;;9.53;8.53;;;;;;;28.16;36.82;94339.11;828063;71;30748;-78
2021/08/03 19:46:47;;;;;;;10.27;9.27;;;;;;;28.28;38.92;94327.77;828745;71;32869;-76
2021/08/03 20:17:15;;;;;;;12.43;9.80;;;;;;;28.41;42.54;94355.56;838567;70;32040;-75
2021/08/03 20:31:56;;;;;;;10.03;8.90;;;;;;;28.51;40.44;94343.91;827666;71;31724;-77
2021/08/03 20:46:51;;;;;;;11.07;8.73;;;;;;;28.13;39.21;94345.33;827770;71;31790;-77
2021/08/03 21:02:09;;;;;;;10.30;8.80;;;;;;;28.22;39.23;94339.44;828189;71;28396;-76
2021/08/03 21:17:05;;;;;;;9.80;8.80;;;;;;;28.22;39.21;94348.88;827553;71;31757;-74
2021/08/03 21:31:58;;;;;;;10.17;9.17;;;;;;;28.15;39.61;94355.14;829106;71;29394;-78
2021/08/03 21:46:56;;;;;;;9.33;8.10;;;;;;;28.12;39.56;94349.97;829936;71;28344;-77
2021/08/03 22:01:55;;;;;;;9.67;8.27;;;;;;;28.15;39.26;94357.25;829465;71;29326;-78
2021/08/03 22:16:55;;;;;;;9.50;8.20;;;;;;;28.07;39.41;94359.09;828160;71;30221;-78
2021/08/03 22:31:53;;;;;;;9.90;8.47;;;;;;;27.94;39.72;94360.19;828009;71;29684;-76
2021/08/03 22:46:53;;;;;;;9.80;7.90;;;;;;;27.94;39.61;94332.03;832681;71;30322;-77
2021/08/03 23:01:56;;;;;;;8.80;8.00;;;;;;;;;;828243;71;33270;-77
2021/08/03 23:16:55;;;;;;;9.27;8.20;;;;;;;;;;833270;71;33162;-77
2021/08/03 23:31:48;;;;;;;8.70;7.90;;;;;;;27.69;40.31;94355.05;834082;71;29310;-75
2021/08/03 23:46:53;;;;;;;10.20;7.87;;;;;;;;;;807035;71;33006;-76
